D/T METAR WX W/DIR W/SPE G/SPE TEMP DEWP
23/05/19 13:50 EGYD 231250Z 26010KT CAVOK 19/04 Q1015 BLU NOSIG W (260°) 11.5mph 19°C 4°C
23/05/19 12:50 EGYD 231150Z 25011KT CAVOK 19/04 Q1015 BLU NOSIG WSW (250°) 12.7mph 19°C 4°C
23/05/19 11:50 EGYD 231050Z 25011KT 9999 FEW048 SCT250 18/06 Q1016 BLU NOSIG WSW (250°) 12.7mph 18°C 6°C
23/05/19 10:50 EGYD 230950Z 25008KT 9999 FEW035 SCT250 16/07 Q1016 BLU NOSIG WSW (250°) 9.2mph 16°C 7°C
23/05/19 09:50 EGYD 230850Z 26007KT 9999 FEW028 SCT250 16/08 Q1016 BLU NOSIG W (260°) 8.1mph 16°C 8°C
23/05/19 08:50 EGYD 230750Z 25007KT 9999 FEW025 BKN250 14/09 Q1016 BLU NOSIG WSW (250°) 8.1mph 14°C 9°C
23/05/19 07:50 EGYD 230650Z 25008KT CAVOK 12/09 Q1017 BLU NOSIG WSW (250°) 9.2mph 12°C 9°C
23/05/19 06:50 EGYD 230550Z 23003KT CAVOK 10/08 Q1016 BLU NOSIG SW (230°) 3.5mph 10°C 8°C
23/05/19 05:50 EGYD 230450Z AUTO 27007KT 9999 // FEW130/// 09/07 Q1016 W (270°) 8.1mph 9°C 7°C
23/05/19 04:50 EGYD 230350Z AUTO 27006KT 9999 // FEW140/// 09/07 Q1016 W (270°) 6.9mph 9°C 7°C
23/05/19 03:50 EGYD 230250Z AUTO 26006KT 9999 // FEW110/// 09/07 Q1016 W (260°) 6.9mph 9°C 7°C
23/05/19 02:50 EGYD 230150Z AUTO 28006KT 9999 // BKN110/// 11/07 Q1017 W (280°) 6.9mph 11°C 7°C
23/05/19 01:50 EGYD 230050Z AUTO 26006KT 9999 // SCT150/// 09/06 Q1017 W (260°) 6.9mph 9°C 6°C
23/05/19 00:50 EGYD 222350Z AUTO 27006KT 9999 // OVC150/// 11/07 Q1017 W (270°) 6.9mph 11°C 7°C
22/05/19 23:50 EGYD 222250Z AUTO 28006KT 9999 // BKN150/// 13/08 Q1017 W (280°) 6.9mph 13°C 8°C
22/05/19 22:50 EGYD 222150Z AUTO 29008KT 9999 // FEW090/// BKN160/// 13/08 Q1017 WNW (290°) 9.2mph 13°C 8°C
22/05/19 21:50 EGYD 222050Z AUTO 29006KT 9999 // FEW090/// SCT160/// 13/08 Q1017 WNW (290°) 6.9mph 13°C 8°C
22/05/19 20:50 EGYD 221950Z AUTO 29003KT 9999 // BKN120/// BKN170/// 15/08 Q1017 WNW (290°) 3.5mph 15°C 8°C
22/05/19 19:50 EGYD 221850Z AUTO 30004KT 9999 // SCT070/// BKN120/// 16/08 Q1017 WNW (300°) 4.6mph 16°C 8°C
22/05/19 18:50 EGYD 221750Z AUTO 30005KT 9999 // OVC070/// 17/06 Q1017 WNW (300°) 5.8mph 17°C 6°C
22/05/19 17:50 EGYD 221650Z AUTO 25009KT 9999 // OVC060/// 18/05 Q1017 WSW (250°) 10.4mph 18°C 5°C
22/05/19 16:50 EGYD 221550Z 25013KT CAVOK 19/05 Q1017 BLU NOSIG WSW (250°) 15.0mph 19°C 5°C
22/05/19 15:50 EGYD 221450Z 24012KT CAVOK 19/06 Q1018 BLU NOSIG WSW (240°) 13.8mph 19°C 6°C
22/05/19 14:50 EGYD 221350Z 24016KT CAVOK 19/05 Q1018 BLU NOSIG WSW (240°) 18.4mph 19°C 5°C
22/05/19 13:50 EGYD 221250Z 26007KT 9999 FEW040 SCT240 17/07 Q1018 BLU NOSIG W (260°) 8.1mph 17°C 7°C
22/05/19 12:50 EGYD 221150Z 26008KT 9999 FEW028 SCT060 BKN100 15/07 Q1019 BLU NOSIG W (260°) 9.2mph 15°C 7°C
22/05/19 11:50 EGYD 221050Z 23008KT 9999 FEW024 BKN060 13/08 Q1019 BLU NOSIG SW (230°) 9.2mph 13°C 8°C
22/05/19 10:50 EGYD 220950Z 23010KT 9999 FEW020 BKN070 12/07 Q1019 BLU NOSIG SW (230°) 11.5mph 12°C 7°C
22/05/19 09:50 EGYD 220850Z 25011KT CAVOK 11/06 Q1019 BLU NOSIG WSW (250°) 12.7mph 11°C 6°C
22/05/19 08:50 EGYD 220750Z 26010KT 9999 -RA FEW050 BKN070 10/06 Q1019 BLU NOSIG -RA W (260°) 11.5mph 10°C 6°C
22/05/19 07:50 EGYD 220650Z 26006KT 9999 -RA FEW050 BKN060 10/05 Q1019 BLU NOSIG -RA W (260°) 6.9mph 10°C 5°C
22/05/19 06:50 EGYD 220550Z 25002KT CAVOK 09/05 Q1019 BLU NOSIG WSW (250°) 2.3mph 9°C 5°C
22/05/19 05:50 EGYD 220450Z AUTO 29005KT 9999 // BKN070/// BKN170/// 09/05 Q1019 WNW (290°) 5.8mph 9°C 5°C
22/05/19 04:50 EGYD 220350Z AUTO 29007KT 9999 // OVC170/// 08/04 Q1019 WNW (290°) 8.1mph 8°C 4°C
22/05/19 03:50 EGYD 220250Z AUTO 29009KT 9999 // OVC180/// 08/04 Q1019 WNW (290°) 10.4mph 8°C 4°C
22/05/19 02:50 EGYD 220150Z AUTO 28009KT 9999 // OVC180/// 08/04 Q1019 W (280°) 10.4mph 8°C 4°C
22/05/19 01:50 EGYD 220050Z AUTO 28009KT 9999 // BKN180/// 08/03 Q1019 W (280°) 10.4mph 8°C 3°C
22/05/19 00:50 EGYD 212350Z AUTO 28009KT 9999 // NCD 08/03 Q1019 W (280°) 10.4mph 8°C 3°C
21/05/19 23:50 EGYD 212250Z AUTO 29008KT 9999 // FEW180/// 10/04 Q1019 WNW (290°) 9.2mph 10°C 4°C
21/05/19 22:50 EGYD 212150Z AUTO 29007KT 9999 // NCD 11/04 Q1019 WNW (290°) 8.1mph 11°C 4°C
21/05/19 21:50 EGYD 212050Z AUTO 04002KT 9999 // NCD 11/08 Q1019 NE (40°) 2.3mph 11°C 8°C
21/05/19 20:50 EGYD 211950Z AUTO 11005KT 9999 // NCD 12/09 Q1019 ESE (110°) 5.8mph 12°C 9°C
21/05/19 19:50 EGYD 211850Z AUTO 13005KT 9999 // NCD 17/05 Q1018 SE (130°) 5.8mph 17°C 5°C
21/05/19 18:50 EGYD 211750Z AUTO 29013KT 9999 // NCD 18/06 Q1018 WNW (290°) 15.0mph 18°C 6°C
21/05/19 17:50 EGYD 211650Z 32008KT CAVOK 18/06 Q1018 BLU NOSIG NW (320°) 9.2mph 18°C 6°C
21/05/19 16:50 EGYD 211550Z 34010KT CAVOK 19/06 Q1017 BLU NOSIG NNW (340°) 11.5mph 19°C 6°C
21/05/19 15:50 EGYD 211450Z 34009KT CAVOK 18/05 Q1018 BLU NOSIG NNW (340°) 10.4mph 18°C 5°C
21/05/19 14:50 EGYD 211350Z 32008KT 9999 SCT047 18/07 Q1018 BLU NOSIG NW (320°) 9.2mph 18°C 7°C